sensor_id;sensor_type;location;lat;lon;timestamp;P1;durP1;ratioP1;P2;durP2;ratioP2
32152;SDS011;18656;50.580;11.392;2023-02-28T00:01:13;3.88;;;3.50;;
32152;SDS011;18656;50.580;11.392;2023-02-28T00:03:41;6.60;;;4.38;;
32152;SDS011;18656;50.580;11.392;2023-02-28T00:06:09;5.47;;;3.90;;
32152;SDS011;18656;50.580;11.392;2023-02-28T00:08:36;3.75;;;3.28;;
32152;SDS011;18656;50.580;11.392;2023-02-28T00:11:11;4.97;;;3.80;;
32152;SDS011;18656;50.580;11.392;2023-02-28T00:13:43;5.00;;;3.53;;
32152;SDS011;18656;50.580;11.392;2023-02-28T00:16:13;5.97;;;3.22;;
32152;SDS011;18656;50.580;11.392;2023-02-28T00:18:41;4.47;;;3.53;;
32152;SDS011;18656;50.580;11.392;2023-02-28T00:21:08;5.25;;;3.20;;
32152;SDS011;18656;50.580;11.392;2023-02-28T00:23:36;3.58;;;3.28;;
32152;SDS011;18656;50.580;11.392;2023-02-28T00:26:03;3.63;;;3.33;;
32152;SDS011;18656;50.580;11.392;2023-02-28T00:28:31;4.63;;;3.70;;
32152;SDS011;18656;50.580;11.392;2023-02-28T00:30:58;5.30;;;3.40;;
32152;SDS011;18656;50.580;11.392;2023-02-28T00:33:26;4.07;;;3.50;;
32152;SDS011;18656;50.580;11.392;2023-02-28T00:36:04;4.55;;;3.38;;
32152;SDS011;18656;50.580;11.392;2023-02-28T00:38:31;5.18;;;3.75;;
32152;SDS011;18656;50.580;11.392;2023-02-28T00:40:58;7.53;;;4.18;;
32152;SDS011;18656;50.580;11.392;2023-02-28T00:43:31;3.80;;;3.35;;
32152;SDS011;18656;50.580;11.392;2023-02-28T00:45:58;5.68;;;4.00;;
32152;SDS011;18656;50.580;11.392;2023-02-28T00:48:25;5.28;;;3.63;;
32152;SDS011;18656;50.580;11.392;2023-02-28T00:50:53;5.30;;;3.60;;
32152;SDS011;18656;50.580;11.392;2023-02-28T00:53:20;6.32;;;3.50;;
32152;SDS011;18656;50.580;11.392;2023-02-28T00:55:48;3.65;;;3.30;;
32152;SDS011;18656;50.580;11.392;2023-02-28T00:58:16;6.10;;;3.58;;
32152;SDS011;18656;50.580;11.392;2023-02-28T01:00:43;3.55;;;3.10;;
32152;SDS011;18656;50.580;11.392;2023-02-28T01:03:18;3.72;;;3.42;;
32152;SDS011;18656;50.580;11.392;2023-02-28T01:05:46;3.60;;;3.30;;
32152;SDS011;18656;50.580;11.392;2023-02-28T01:08:14;6.53;;;3.45;;
32152;SDS011;18656;50.580;11.392;2023-02-28T01:10:41;3.75;;;3.20;;
32152;SDS011;18656;50.580;11.392;2023-02-28T01:13:09;4.78;;;3.42;;
32152;SDS011;18656;50.580;11.392;2023-02-28T01:15:36;5.03;;;3.60;;
32152;SDS011;18656;50.580;11.392;2023-02-28T01:18:04;6.38;;;3.80;;
32152;SDS011;18656;50.580;11.392;2023-02-28T01:20:32;4.93;;;3.75;;
32152;SDS011;18656;50.580;11.392;2023-02-28T01:22:59;4.65;;;3.50;;
32152;SDS011;18656;50.580;11.392;2023-02-28T01:25:26;4.78;;;3.40;;
32152;SDS011;18656;50.580;11.392;2023-02-28T01:27:56;4.32;;;3.42;;
32152;SDS011;18656;50.580;11.392;2023-02-28T01:30:23;4.53;;;3.28;;
32152;SDS011;18656;50.580;11.392;2023-02-28T01:32:53;5.47;;;3.60;;
32152;SDS011;18656;50.580;11.392;2023-02-28T01:35:20;4.35;;;3.63;;
32152;SDS011;18656;50.580;11.392;2023-02-28T01:37:48;5.00;;;3.92;;
32152;SDS011;18656;50.580;11.392;2023-02-28T01:40:15;7.93;;;4.22;;
32152;SDS011;18656;50.580;11.392;2023-02-28T01:42:42;4.53;;;4.00;;
32152;SDS011;18656;50.580;11.392;2023-02-28T01:45:21;6.82;;;4.10;;
32152;SDS011;18656;50.580;11.392;2023-02-28T01:47:50;4.90;;;4.20;;
32152;SDS011;18656;50.580;11.392;2023-02-28T01:50:19;5.85;;;5.35;;
32152;SDS011;18656;50.580;11.392;2023-02-28T01:52:47;10.32;;;4.22;;
32152;SDS011;18656;50.580;11.392;2023-02-28T01:55:15;4.63;;;3.90;;
32152;SDS011;18656;50.580;11.392;2023-02-28T01:57:45;6.15;;;4.43;;
32152;SDS011;18656;50.580;11.392;2023-02-28T02:00:14;8.40;;;5.22;;
32152;SDS011;18656;50.580;11.392;2023-02-28T02:02:43;5.85;;;5.10;;
32152;SDS011;18656;50.580;11.392;2023-02-28T02:05:15;5.80;;;4.20;;
32152;SDS011;18656;50.580;11.392;2023-02-28T02:07:44;5.10;;;4.65;;
32152;SDS011;18656;50.580;11.392;2023-02-28T02:10:14;6.63;;;5.10;;
32152;SDS011;18656;50.580;11.392;2023-02-28T02:12:50;5.47;;;4.30;;
32152;SDS011;18656;50.580;11.392;2023-02-28T02:15:27;4.57;;;4.18;;
32152;SDS011;18656;50.580;11.392;2023-02-28T02:17:57;6.65;;;3.67;;
32152;SDS011;18656;50.580;11.392;2023-02-28T02:25:51;6.47;;;4.95;;
32152;SDS011;18656;50.580;11.392;2023-02-28T02:36:22;5.78;;;4.40;;
32152;SDS011;18656;50.580;11.392;2023-02-28T02:38:52;3.92;;;3.60;;
32152;SDS011;18656;50.580;11.392;2023-02-28T02:41:28;5.72;;;4.60;;
32152;SDS011;18656;50.580;11.392;2023-02-28T02:44:02;5.65;;;4.15;;
32152;SDS011;18656;50.580;11.392;2023-02-28T02:46:33;7.82;;;4.90;;
32152;SDS011;18656;50.580;11.392;2023-02-28T02:49:02;5.60;;;5.00;;
32152;SDS011;18656;50.580;11.392;2023-02-28T02:51:31;7.82;;;6.70;;
32152;SDS011;18656;50.580;11.392;2023-02-28T02:54:07;7.22;;;6.22;;
32152;SDS011;18656;50.580;11.392;2023-02-28T02:56:35;9.88;;;6.60;;
32152;SDS011;18656;50.580;11.392;2023-02-28T02:59:04;7.97;;;6.97;;
32152;SDS011;18656;50.580;11.392;2023-02-28T03:01:32;10.18;;;6.50;;
32152;SDS011;18656;50.580;11.392;2023-02-28T03:04:03;16.63;;;7.03;;
32152;SDS011;18656;50.580;11.392;2023-02-28T03:06:31;8.43;;;6.90;;
32152;SDS011;18656;50.580;11.392;2023-02-28T03:08:59;13.40;;;6.50;;
32152;SDS011;18656;50.580;11.392;2023-02-28T03:11:27;9.52;;;6.38;;
32152;SDS011;18656;50.580;11.392;2023-02-28T03:19:13;8.10;;;5.40;;
32152;SDS011;18656;50.580;11.392;2023-02-28T03:24:35;6.85;;;5.32;;
32152;SDS011;18656;50.580;11.392;2023-02-28T03:27:07;6.75;;;5.93;;
32152;SDS011;18656;50.580;11.392;2023-02-28T03:29:41;6.90;;;6.18;;
32152;SDS011;18656;50.580;11.392;2023-02-28T03:32:16;6.68;;;6.07;;
32152;SDS011;18656;50.580;11.392;2023-02-28T03:35:07;10.25;;;6.15;;
32152;SDS011;18656;50.580;11.392;2023-02-28T03:37:37;8.10;;;6.97;;
32152;SDS011;18656;50.580;11.392;2023-02-28T03:40:08;7.80;;;6.70;;
32152;SDS011;18656;50.580;11.392;2023-02-28T03:42:39;9.23;;;7.03;;
32152;SDS011;18656;50.580;11.392;2023-02-28T03:45:21;7.57;;;6.43;;
32152;SDS011;18656;50.580;11.392;2023-02-28T03:47:51;7.82;;;6.88;;
32152;SDS011;18656;50.580;11.392;2023-02-28T03:50:20;10.75;;;8.57;;
32152;SDS011;18656;50.580;11.392;2023-02-28T03:52:50;9.40;;;6.78;;
32152;SDS011;18656;50.580;11.392;2023-02-28T03:55:18;8.73;;;7.38;;
32152;SDS011;18656;50.580;11.392;2023-02-28T03:57:59;10.02;;;7.93;;
32152;SDS011;18656;50.580;11.392;2023-02-28T04:00:34;9.70;;;7.43;;
32152;SDS011;18656;50.580;11.392;2023-02-28T04:03:02;8.15;;;6.53;;
32152;SDS011;18656;50.580;11.392;2023-02-28T04:05:29;9.27;;;6.63;;
32152;SDS011;18656;50.580;11.392;2023-02-28T04:08:04;9.13;;;6.88;;
32152;SDS011;18656;50.580;11.392;2023-02-28T04:10:31;6.85;;;6.25;;
32152;SDS011;18656;50.580;11.392;2023-02-28T04:12:58;10.65;;;6.93;;
32152;SDS011;18656;50.580;11.392;2023-02-28T04:15:25;11.10;;;7.95;;
32152;SDS011;18656;50.580;11.392;2023-02-28T04:17:53;9.88;;;7.95;;
32152;SDS011;18656;50.580;11.392;2023-02-28T04:20:20;10.63;;;7.78;;
32152;SDS011;18656;50.580;11.392;2023-02-28T04:22:47;14.23;;;7.88;;
32152;SDS011;18656;50.580;11.392;2023-02-28T04:25:15;9.95;;;7.68;;
32152;SDS011;18656;50.580;11.392;2023-02-28T04:27:42;10.00;;;7.60;;
32152;SDS011;18656;50.580;11.392;2023-02-28T04:30:10;8.52;;;7.38;;
32152;SDS011;18656;50.580;11.392;2023-02-28T04:32:38;10.25;;;7.50;;
32152;SDS011;18656;50.580;11.392;2023-02-28T04:35:05;12.63;;;8.32;;
32152;SDS011;18656;50.580;11.392;2023-02-28T04:37:33;8.73;;;7.50;;
32152;SDS011;18656;50.580;11.392;2023-02-28T04:40:01;11.13;;;8.07;;
32152;SDS011;18656;50.580;11.392;2023-02-28T04:42:28;8.95;;;7.70;;
32152;SDS011;18656;50.580;11.392;2023-02-28T04:45:02;10.85;;;8.63;;
32152;SDS011;18656;50.580;11.392;2023-02-28T04:47:29;17.88;;;9.35;;
32152;SDS011;18656;50.580;11.392;2023-02-28T04:49:57;12.25;;;9.07;;
32152;SDS011;18656;50.580;11.392;2023-02-28T04:52:24;16.60;;;9.70;;
32152;SDS011;18656;50.580;11.392;2023-02-28T04:54:51;16.25;;;10.02;;
32152;SDS011;18656;50.580;11.392;2023-02-28T04:57:19;14.48;;;10.48;;
32152;SDS011;18656;50.580;11.392;2023-02-28T04:59:46;14.02;;;10.45;;
32152;SDS011;18656;50.580;11.392;2023-02-28T05:02:13;12.25;;;9.55;;
32152;SDS011;18656;50.580;11.392;2023-02-28T05:04:40;11.50;;;7.97;;
32152;SDS011;18656;50.580;11.392;2023-02-28T05:07:07;11.05;;;8.95;;
32152;SDS011;18656;50.580;11.392;2023-02-28T05:09:35;13.43;;;8.95;;
32152;SDS011;18656;50.580;11.392;2023-02-28T05:12:03;10.05;;;8.48;;
32152;SDS011;18656;50.580;11.392;2023-02-28T05:14:30;12.70;;;8.55;;
32152;SDS011;18656;50.580;11.392;2023-02-28T05:16:57;18.05;;;11.50;;
32152;SDS011;18656;50.580;11.392;2023-02-28T05:19:24;19.80;;;11.32;;
32152;SDS011;18656;50.580;11.392;2023-02-28T05:21:52;14.95;;;10.55;;
32152;SDS011;18656;50.580;11.392;2023-02-28T05:24:20;13.05;;;9.15;;
32152;SDS011;18656;50.580;11.392;2023-02-28T05:26:51;15.30;;;9.70;;
32152;SDS011;18656;50.580;11.392;2023-02-28T05:29:19;17.10;;;9.63;;
32152;SDS011;18656;50.580;11.392;2023-02-28T05:31:46;13.98;;;9.18;;
32152;SDS011;18656;50.580;11.392;2023-02-28T05:34:14;11.75;;;8.35;;
32152;SDS011;18656;50.580;11.392;2023-02-28T05:36:42;12.15;;;7.72;;
32152;SDS011;18656;50.580;11.392;2023-02-28T05:39:10;10.90;;;8.23;;
32152;SDS011;18656;50.580;11.392;2023-02-28T05:41:42;11.40;;;8.07;;
32152;SDS011;18656;50.580;11.392;2023-02-28T05:44:09;11.55;;;7.70;;
32152;SDS011;18656;50.580;11.392;2023-02-28T05:46:40;10.43;;;7.25;;
32152;SDS011;18656;50.580;11.392;2023-02-28T05:49:07;9.48;;;6.43;;
32152;SDS011;18656;50.580;11.392;2023-02-28T05:51:35;10.52;;;7.65;;
32152;SDS011;18656;50.580;11.392;2023-02-28T05:54:06;13.07;;;7.72;;
32152;SDS011;18656;50.580;11.392;2023-02-28T05:56:33;10.85;;;7.65;;
32152;SDS011;18656;50.580;11.392;2023-02-28T05:59:01;9.77;;;7.80;;
32152;SDS011;18656;50.580;11.392;2023-02-28T06:01:38;9.35;;;7.60;;
32152;SDS011;18656;50.580;11.392;2023-02-28T06:04:15;11.00;;;7.57;;
32152;SDS011;18656;50.580;11.392;2023-02-28T06:06:56;12.80;;;8.32;;
32152;SDS011;18656;50.580;11.392;2023-02-28T06:09:23;13.80;;;8.50;;
32152;SDS011;18656;50.580;11.392;2023-02-28T06:11:51;17.27;;;11.23;;
32152;SDS011;18656;50.580;11.392;2023-02-28T06:14:19;16.92;;;9.90;;
32152;SDS011;18656;50.580;11.392;2023-02-28T06:16:46;19.40;;;9.75;;
32152;SDS011;18656;50.580;11.392;2023-02-28T06:19:14;21.88;;;10.45;;
32152;SDS011;18656;50.580;11.392;2023-02-28T06:21:42;19.75;;;10.90;;
32152;SDS011;18656;50.580;11.392;2023-02-28T06:24:09;17.67;;;11.20;;
32152;SDS011;18656;50.580;11.392;2023-02-28T06:26:37;16.55;;;10.50;;
32152;SDS011;18656;50.580;11.392;2023-02-28T06:29:04;14.75;;;10.77;;
32152;SDS011;18656;50.580;11.392;2023-02-28T06:31:31;16.90;;;10.65;;
32152;SDS011;18656;50.580;11.392;2023-02-28T06:33:59;15.48;;;10.13;;
32152;SDS011;18656;50.580;11.392;2023-02-28T06:36:29;14.23;;;8.60;;
32152;SDS011;18656;50.580;11.392;2023-02-28T06:38:56;12.10;;;9.07;;
32152;SDS011;18656;50.580;11.392;2023-02-28T06:41:24;9.88;;;8.02;;
32152;SDS011;18656;50.580;11.392;2023-02-28T06:43:52;12.38;;;9.40;;
32152;SDS011;18656;50.580;11.392;2023-02-28T06:46:19;15.75;;;9.32;;
32152;SDS011;18656;50.580;11.392;2023-02-28T06:48:47;13.32;;;8.82;;
32152;SDS011;18656;50.580;11.392;2023-02-28T06:51:16;11.48;;;8.75;;
32152;SDS011;18656;50.580;11.392;2023-02-28T06:53:43;16.77;;;10.15;;
32152;SDS011;18656;50.580;11.392;2023-02-28T06:56:12;16.13;;;9.25;;
32152;SDS011;18656;50.580;11.392;2023-02-28T06:58:39;13.25;;;8.85;;
32152;SDS011;18656;50.580;11.392;2023-02-28T07:01:07;9.98;;;8.13;;
32152;SDS011;18656;50.580;11.392;2023-02-28T07:03:35;13.68;;;7.65;;
32152;SDS011;18656;50.580;11.392;2023-02-28T07:06:04;11.18;;;7.90;;
32152;SDS011;18656;50.580;11.392;2023-02-28T07:08:31;20.27;;;10.88;;
32152;SDS011;18656;50.580;11.392;2023-02-28T07:10:59;22.73;;;12.73;;
32152;SDS011;18656;50.580;11.392;2023-02-28T07:13:26;11.98;;;9.02;;
32152;SDS011;18656;50.580;11.392;2023-02-28T07:15:57;12.82;;;7.32;;
32152;SDS011;18656;50.580;11.392;2023-02-28T07:18:25;8.82;;;7.72;;
32152;SDS011;18656;50.580;11.392;2023-02-28T07:20:52;8.48;;;6.38;;
32152;SDS011;18656;50.580;11.392;2023-02-28T07:23:20;7.00;;;6.30;;
32152;SDS011;18656;50.580;11.392;2023-02-28T07:25:47;9.40;;;6.65;;
32152;SDS011;18656;50.580;11.392;2023-02-28T07:28:14;8.85;;;6.32;;
32152;SDS011;18656;50.580;11.392;2023-02-28T07:30:42;15.02;;;6.85;;
32152;SDS011;18656;50.580;11.392;2023-02-28T07:33:09;17.00;;;8.57;;
32152;SDS011;18656;50.580;11.392;2023-02-28T07:35:36;11.73;;;6.60;;
32152;SDS011;18656;50.580;11.392;2023-02-28T07:38:04;12.52;;;6.50;;
32152;SDS011;18656;50.580;11.392;2023-02-28T07:40:34;11.88;;;7.30;;
32152;SDS011;18656;50.580;11.392;2023-02-28T07:43:01;9.52;;;7.07;;
32152;SDS011;18656;50.580;11.392;2023-02-28T07:45:29;24.02;;;8.23;;
32152;SDS011;18656;50.580;11.392;2023-02-28T07:47:57;12.52;;;7.68;;
32152;SDS011;18656;50.580;11.392;2023-02-28T07:50:25;9.70;;;7.35;;
32152;SDS011;18656;50.580;11.392;2023-02-28T07:52:53;11.05;;;8.18;;
32152;SDS011;18656;50.580;11.392;2023-02-28T07:55:21;11.00;;;7.93;;
32152;SDS011;18656;50.580;11.392;2023-02-28T07:57:48;12.57;;;7.28;;
32152;SDS011;18656;50.580;11.392;2023-02-28T08:00:15;8.00;;;6.70;;
32152;SDS011;18656;50.580;11.392;2023-02-28T08:02:42;8.13;;;6.40;;
32152;SDS011;18656;50.580;11.392;2023-02-28T08:05:10;7.68;;;5.60;;
32152;SDS011;18656;50.580;11.392;2023-02-28T08:07:37;8.75;;;5.82;;
32152;SDS011;18656;50.580;11.392;2023-02-28T08:10:05;8.63;;;5.53;;
32152;SDS011;18656;50.580;11.392;2023-02-28T08:12:32;7.40;;;5.63;;
32152;SDS011;18656;50.580;11.392;2023-02-28T08:15:00;6.50;;;4.80;;
32152;SDS011;18656;50.580;11.392;2023-02-28T08:17:27;22.35;;;6.43;;
32152;SDS011;18656;50.580;11.392;2023-02-28T08:19:54;7.88;;;4.68;;
32152;SDS011;18656;50.580;11.392;2023-02-28T08:22:21;19.27;;;6.05;;
32152;SDS011;18656;50.580;11.392;2023-02-28T08:24:48;6.30;;;5.30;;
32152;SDS011;18656;50.580;11.392;2023-02-28T08:27:15;22.67;;;6.15;;
32152;SDS011;18656;50.580;11.392;2023-02-28T08:29:43;9.93;;;5.15;;
32152;SDS011;18656;50.580;11.392;2023-02-28T08:32:10;27.67;;;5.50;;
32152;SDS011;18656;50.580;11.392;2023-02-28T08:34:54;6.57;;;4.43;;
32152;SDS011;18656;50.580;11.392;2023-02-28T08:37:22;5.88;;;4.55;;
32152;SDS011;18656;50.580;11.392;2023-02-28T08:39:49;5.28;;;4.15;;
32152;SDS011;18656;50.580;11.392;2023-02-28T08:42:19;9.80;;;4.80;;
32152;SDS011;18656;50.580;11.392;2023-02-28T08:44:47;23.75;;;10.75;;
32152;SDS011;18656;50.580;11.392;2023-02-28T08:47:14;5.78;;;4.78;;
32152;SDS011;18656;50.580;11.392;2023-02-28T08:49:41;7.32;;;4.53;;
32152;SDS011;18656;50.580;11.392;2023-02-28T08:52:09;9.02;;;4.38;;
32152;SDS011;18656;50.580;11.392;2023-02-28T08:54:36;8.23;;;5.13;;
32152;SDS011;18656;50.580;11.392;2023-02-28T08:57:03;14.23;;;5.70;;
32152;SDS011;18656;50.580;11.392;2023-02-28T08:59:30;11.80;;;4.43;;
32152;SDS011;18656;50.580;11.392;2023-02-28T09:01:57;18.52;;;5.45;;
32152;SDS011;18656;50.580;11.392;2023-02-28T09:04:24;10.23;;;4.07;;
32152;SDS011;18656;50.580;11.392;2023-02-28T09:06:52;18.02;;;6.07;;
32152;SDS011;18656;50.580;11.392;2023-02-28T09:09:19;6.15;;;3.95;;
32152;SDS011;18656;50.580;11.392;2023-02-28T09:11:47;5.07;;;3.88;;
32152;SDS011;18656;50.580;11.392;2023-02-28T09:14:14;4.43;;;3.58;;
32152;SDS011;18656;50.580;11.392;2023-02-28T09:16:43;10.05;;;3.67;;
32152;SDS011;18656;50.580;11.392;2023-02-28T09:19:11;5.93;;;4.30;;
32152;SDS011;18656;50.580;11.392;2023-02-28T09:21:38;11.55;;;4.50;;
32152;SDS011;18656;50.580;11.392;2023-02-28T09:24:06;9.73;;;4.55;;
32152;SDS011;18656;50.580;11.392;2023-02-28T09:26:33;4.90;;;3.97;;
32152;SDS011;18656;50.580;11.392;2023-02-28T09:29:12;7.63;;;3.97;;
32152;SDS011;18656;50.580;11.392;2023-02-28T09:31:40;4.30;;;3.67;;
32152;SDS011;18656;50.580;11.392;2023-02-28T09:34:07;5.50;;;4.03;;
32152;SDS011;18656;50.580;11.392;2023-02-28T09:36:35;7.20;;;4.15;;
32152;SDS011;18656;50.580;11.392;2023-02-28T09:39:11;11.38;;;4.47;;
32152;SDS011;18656;50.580;11.392;2023-02-28T09:41:43;6.43;;;4.18;;
32152;SDS011;18656;50.580;11.392;2023-02-28T09:46:51;6.95;;;4.10;;
32152;SDS011;18656;50.580;11.392;2023-02-28T09:49:22;4.93;;;3.83;;
32152;SDS011;18656;50.580;11.392;2023-02-28T09:51:51;4.57;;;3.42;;
32152;SDS011;18656;50.580;11.392;2023-02-28T09:54:22;6.05;;;3.85;;
32152;SDS011;18656;50.580;11.392;2023-02-28T09:56:51;6.30;;;3.42;;
32152;SDS011;18656;50.580;11.392;2023-02-28T09:59:25;6.07;;;4.25;;
32152;SDS011;18656;50.580;11.392;2023-02-28T10:04:53;5.15;;;4.18;;
32152;SDS011;18656;50.580;11.392;2023-02-28T10:09:51;5.60;;;4.38;;
32152;SDS011;18656;50.580;11.392;2023-02-28T10:12:19;6.70;;;4.25;;
32152;SDS011;18656;50.580;11.392;2023-02-28T10:14:49;14.35;;;5.00;;
32152;SDS011;18656;50.580;11.392;2023-02-28T10:17:19;18.67;;;4.75;;
32152;SDS011;18656;50.580;11.392;2023-02-28T10:19:56;11.82;;;4.93;;
32152;SDS011;18656;50.580;11.392;2023-02-28T10:22:33;7.40;;;4.40;;
32152;SDS011;18656;50.580;11.392;2023-02-28T10:25:05;6.22;;;4.53;;
32152;SDS011;18656;50.580;11.392;2023-02-28T10:27:42;6.95;;;4.57;;
32152;SDS011;18656;50.580;11.392;2023-02-28T10:30:10;21.98;;;5.10;;
32152;SDS011;18656;50.580;11.392;2023-02-28T10:32:39;5.57;;;4.30;;
32152;SDS011;18656;50.580;11.392;2023-02-28T10:37:38;5.38;;;3.88;;
32152;SDS011;18656;50.580;11.392;2023-02-28T10:40:06;6.25;;;4.00;;
32152;SDS011;18656;50.580;11.392;2023-02-28T10:42:34;6.28;;;4.68;;
32152;SDS011;18656;50.580;11.392;2023-02-28T10:45:06;6.72;;;4.40;;
32152;SDS011;18656;50.580;11.392;2023-02-28T10:47:40;9.25;;;4.68;;
32152;SDS011;18656;50.580;11.392;2023-02-28T10:50:28;4.93;;;3.88;;
32152;SDS011;18656;50.580;11.392;2023-02-28T10:52:55;8.18;;;4.25;;
32152;SDS011;18656;50.580;11.392;2023-02-28T10:55:31;10.35;;;5.05;;
32152;SDS011;18656;50.580;11.392;2023-02-28T10:57:58;9.07;;;4.88;;
32152;SDS011;18656;50.580;11.392;2023-02-28T11:00:26;7.13;;;4.38;;
32152;SDS011;18656;50.580;11.392;2023-02-28T11:02:58;7.00;;;4.78;;
32152;SDS011;18656;50.580;11.392;2023-02-28T11:05:32;7.50;;;4.38;;
32152;SDS011;18656;50.580;11.392;2023-02-28T11:10:31;8.02;;;3.90;;
32152;SDS011;18656;50.580;11.392;2023-02-28T11:13:01;5.35;;;4.32;;
32152;SDS011;18656;50.580;11.392;2023-02-28T11:15:30;18.35;;;4.53;;
32152;SDS011;18656;50.580;11.392;2023-02-28T11:20:32;4.40;;;3.95;;
32152;SDS011;18656;50.580;11.392;2023-02-28T11:23:00;7.28;;;4.80;;
32152;SDS011;18656;50.580;11.392;2023-02-28T11:25:32;11.23;;;5.60;;
32152;SDS011;18656;50.580;11.392;2023-02-28T11:28:01;8.60;;;5.18;;
32152;SDS011;18656;50.580;11.392;2023-02-28T11:32:58;7.72;;;4.25;;
32152;SDS011;18656;50.580;11.392;2023-02-28T11:35:28;7.25;;;4.50;;
32152;SDS011;18656;50.580;11.392;2023-02-28T11:37:56;7.10;;;4.80;;
32152;SDS011;18656;50.580;11.392;2023-02-28T11:40:28;8.20;;;4.68;;
32152;SDS011;18656;50.580;11.392;2023-02-28T11:43:08;6.50;;;5.10;;
32152;SDS011;18656;50.580;11.392;2023-02-28T11:45:44;11.30;;;5.43;;
32152;SDS011;18656;50.580;11.392;2023-02-28T11:50:49;10.32;;;4.93;;
32152;SDS011;18656;50.580;11.392;2023-02-28T11:53:24;4.97;;;4.30;;
32152;SDS011;18656;50.580;11.392;2023-02-28T11:55:59;7.43;;;4.45;;
32152;SDS011;18656;50.580;11.392;2023-02-28T11:58:37;5.95;;;4.55;;
32152;SDS011;18656;50.580;11.392;2023-02-28T12:01:27;5.15;;;4.68;;
32152;SDS011;18656;50.580;11.392;2023-02-28T12:06:45;9.07;;;4.45;;
32152;SDS011;18656;50.580;11.392;2023-02-28T12:09:20;9.55;;;5.13;;
32152;SDS011;18656;50.580;11.392;2023-02-28T12:14:47;21.98;;;10.95;;
32152;SDS011;18656;50.580;11.392;2023-02-28T12:17:22;7.25;;;5.50;;
32152;SDS011;18656;50.580;11.392;2023-02-28T12:25:30;10.32;;;4.72;;
32152;SDS011;18656;50.580;11.392;2023-02-28T12:28:08;8.73;;;5.37;;
32152;SDS011;18656;50.580;11.392;2023-02-28T12:30:37;8.38;;;5.35;;
32152;SDS011;18656;50.580;11.392;2023-02-28T12:33:06;5.97;;;5.38;;
32152;SDS011;18656;50.580;11.392;2023-02-28T12:35:36;5.85;;;5.03;;
32152;SDS011;18656;50.580;11.392;2023-02-28T12:38:39;5.35;;;4.28;;
32152;SDS011;18656;50.580;11.392;2023-02-28T12:41:00;9.48;;;4.65;;
32152;SDS011;18656;50.580;11.392;2023-02-28T12:43:40;5.85;;;3.80;;
32152;SDS011;18656;50.580;11.392;2023-02-28T12:46:13;10.27;;;4.47;;
32152;SDS011;18656;50.580;11.392;2023-02-28T12:48:43;12.55;;;5.95;;
32152;SDS011;18656;50.580;11.392;2023-02-28T12:51:12;11.50;;;5.05;;
32152;SDS011;18656;50.580;11.392;2023-02-28T12:53:52;7.97;;;5.15;;
32152;SDS011;18656;50.580;11.392;2023-02-28T12:56:26;13.60;;;6.05;;
32152;SDS011;18656;50.580;11.392;2023-02-28T12:58:56;7.07;;;5.18;;
32152;SDS011;18656;50.580;11.392;2023-02-28T13:01:35;9.10;;;5.72;;
32152;SDS011;18656;50.580;11.392;2023-02-28T13:09:20;6.13;;;4.70;;
32152;SDS011;18656;50.580;11.392;2023-02-28T13:11:48;9.10;;;5.07;;
32152;SDS011;18656;50.580;11.392;2023-02-28T13:14:36;6.65;;;4.97;;
32152;SDS011;18656;50.580;11.392;2023-02-28T13:19:55;10.55;;;5.45;;
32152;SDS011;18656;50.580;11.392;2023-02-28T13:22:42;9.52;;;5.60;;
32152;SDS011;18656;50.580;11.392;2023-02-28T13:27:50;8.23;;;5.03;;
32152;SDS011;18656;50.580;11.392;2023-02-28T13:35:46;8.88;;;5.18;;
32152;SDS011;18656;50.580;11.392;2023-02-28T13:38:17;12.07;;;5.53;;
32152;SDS011;18656;50.580;11.392;2023-02-28T13:40:48;6.13;;;5.20;;
32152;SDS011;18656;50.580;11.392;2023-02-28T13:43:16;6.60;;;4.90;;
32152;SDS011;18656;50.580;11.392;2023-02-28T13:46:10;6.32;;;4.78;;
32152;SDS011;18656;50.580;11.392;2023-02-28T13:48:38;7.57;;;5.40;;
32152;SDS011;18656;50.580;11.392;2023-02-28T13:54:00;8.75;;;5.40;;
32152;SDS011;18656;50.580;11.392;2023-02-28T13:56:41;6.80;;;5.43;;
32152;SDS011;18656;50.580;11.392;2023-02-28T14:07:48;9.50;;;5.10;;
32152;SDS011;18656;50.580;11.392;2023-02-28T14:10:21;6.10;;;5.30;;
32152;SDS011;18656;50.580;11.392;2023-02-28T14:15:27;9.93;;;6.57;;
32152;SDS011;18656;50.580;11.392;2023-02-28T14:17:55;8.30;;;5.50;;
32152;SDS011;18656;50.580;11.392;2023-02-28T14:20:23;8.35;;;5.35;;
32152;SDS011;18656;50.580;11.392;2023-02-28T14:23:03;8.90;;;5.13;;
32152;SDS011;18656;50.580;11.392;2023-02-28T14:25:35;7.93;;;5.00;;
32152;SDS011;18656;50.580;11.392;2023-02-28T14:28:17;11.73;;;5.65;;
32152;SDS011;18656;50.580;11.392;2023-02-28T14:30:57;10.27;;;5.32;;
32152;SDS011;18656;50.580;11.392;2023-02-28T14:36:00;8.55;;;5.47;;
32152;SDS011;18656;50.580;11.392;2023-02-28T14:38:33;12.93;;;6.03;;
32152;SDS011;18656;50.580;11.392;2023-02-28T14:41:03;12.65;;;6.03;;
32152;SDS011;18656;50.580;11.392;2023-02-28T14:43:34;13.60;;;6.30;;
32152;SDS011;18656;50.580;11.392;2023-02-28T14:46:02;12.73;;;5.80;;
32152;SDS011;18656;50.580;11.392;2023-02-28T14:48:31;11.57;;;6.05;;
32152;SDS011;18656;50.580;11.392;2023-02-28T14:50:59;18.73;;;9.80;;
32152;SDS011;18656;50.580;11.392;2023-02-28T14:53:28;19.38;;;11.13;;
32152;SDS011;18656;50.580;11.392;2023-02-28T14:55:56;11.23;;;6.72;;
32152;SDS011;18656;50.580;11.392;2023-02-28T14:58:30;12.95;;;6.93;;
32152;SDS011;18656;50.580;11.392;2023-02-28T15:00:59;11.15;;;6.57;;
32152;SDS011;18656;50.580;11.392;2023-02-28T15:03:34;11.35;;;8.02;;
32152;SDS011;18656;50.580;11.392;2023-02-28T15:06:03;13.27;;;8.38;;
32152;SDS011;18656;50.580;11.392;2023-02-28T15:08:30;14.98;;;8.80;;
32152;SDS011;18656;50.580;11.392;2023-02-28T15:11:02;11.60;;;8.13;;
32152;SDS011;18656;50.580;11.392;2023-02-28T15:13:34;11.00;;;8.05;;
32152;SDS011;18656;50.580;11.392;2023-02-28T15:16:03;36.88;;;23.85;;
32152;SDS011;18656;50.580;11.392;2023-02-28T15:18:33;19.33;;;11.60;;
32152;SDS011;18656;50.580;11.392;2023-02-28T15:21:02;13.55;;;7.47;;
32152;SDS011;18656;50.580;11.392;2023-02-28T15:23:30;17.17;;;8.48;;
32152;SDS011;18656;50.580;11.392;2023-02-28T15:25:58;13.80;;;9.43;;
32152;SDS011;18656;50.580;11.392;2023-02-28T15:28:26;15.88;;;9.55;;
32152;SDS011;18656;50.580;11.392;2023-02-28T15:30:55;10.65;;;7.85;;
32152;SDS011;18656;50.580;11.392;2023-02-28T15:33:24;12.45;;;7.60;;
32152;SDS011;18656;50.580;11.392;2023-02-28T15:36:03;11.38;;;7.35;;
32152;SDS011;18656;50.580;11.392;2023-02-28T15:38:32;11.48;;;7.72;;
32152;SDS011;18656;50.580;11.392;2023-02-28T15:41:00;13.52;;;8.18;;
32152;SDS011;18656;50.580;11.392;2023-02-28T15:43:35;28.67;;;9.70;;
32152;SDS011;18656;50.580;11.392;2023-02-28T15:46:03;27.88;;;9.38;;
32152;SDS011;18656;50.580;11.392;2023-02-28T15:48:32;12.63;;;8.77;;
32152;SDS011;18656;50.580;11.392;2023-02-28T15:51:02;12.52;;;8.00;;
32152;SDS011;18656;50.580;11.392;2023-02-28T15:53:31;15.00;;;9.10;;
32152;SDS011;18656;50.580;11.392;2023-02-28T15:56:00;11.30;;;8.40;;
32152;SDS011;18656;50.580;11.392;2023-02-28T15:58:28;18.42;;;9.02;;
32152;SDS011;18656;50.580;11.392;2023-02-28T16:01:06;12.43;;;8.00;;
32152;SDS011;18656;50.580;11.392;2023-02-28T16:03:44;11.45;;;8.57;;
32152;SDS011;18656;50.580;11.392;2023-02-28T16:08:48;29.38;;;18.90;;
32152;SDS011;18656;50.580;11.392;2023-02-28T16:11:17;12.77;;;9.55;;
32152;SDS011;18656;50.580;11.392;2023-02-28T16:13:45;19.58;;;11.23;;